sensor_id;sensor_type;location;lat;lon;timestamp;P1;durP1;ratioP1;P2;durP2;ratioP2
50853;SDS011;44154;45.506;-122.806;2023-03-21T00:01:38;1.40;;;0.20;;
50853;SDS011;44154;45.506;-122.806;2023-03-21T00:04:04;1.88;;;0.30;;
50853;SDS011;44154;45.506;-122.806;2023-03-21T00:06:30;0.70;;;0.20;;
50853;SDS011;44154;45.506;-122.806;2023-03-21T00:08:57;1.20;;;0.17;;
50853;SDS011;44154;45.506;-122.806;2023-03-21T00:11:23;2.08;;;0.20;;
50853;SDS011;44154;45.506;-122.806;2023-03-21T00:13:49;1.77;;;0.28;;
50853;SDS011;44154;45.506;-122.806;2023-03-21T00:16:17;0.68;;;0.30;;
50853;SDS011;44154;45.506;-122.806;2023-03-21T00:18:45;1.95;;;0.40;;
50853;SDS011;44154;45.506;-122.806;2023-03-21T00:21:14;1.45;;;0.40;;
50853;SDS011;44154;45.506;-122.806;2023-03-21T00:23:42;3.78;;;0.45;;
50853;SDS011;44154;45.506;-122.806;2023-03-21T00:26:09;1.23;;;0.30;;
50853;SDS011;44154;45.506;-122.806;2023-03-21T00:28:36;5.82;;;0.68;;
50853;SDS011;44154;45.506;-122.806;2023-03-21T00:31:03;3.75;;;0.40;;
50853;SDS011;44154;45.506;-122.806;2023-03-21T00:33:30;1.92;;;0.40;;
50853;SDS011;44154;45.506;-122.806;2023-03-21T00:35:56;4.35;;;0.60;;
50853;SDS011;44154;45.506;-122.806;2023-03-21T00:38:23;1.38;;;0.35;;
50853;SDS011;44154;45.506;-122.806;2023-03-21T00:40:49;4.38;;;0.50;;
50853;SDS011;44154;45.506;-122.806;2023-03-21T00:43:16;5.78;;;0.50;;
50853;SDS011;44154;45.506;-122.806;2023-03-21T00:45:44;6.70;;;0.68;;
50853;SDS011;44154;45.506;-122.806;2023-03-21T00:48:11;3.28;;;0.88;;
50853;SDS011;44154;45.506;-122.806;2023-03-21T00:50:38;5.72;;;0.60;;
50853;SDS011;44154;45.506;-122.806;2023-03-21T00:53:05;6.97;;;0.85;;
50853;SDS011;44154;45.506;-122.806;2023-03-21T00:55:31;4.97;;;0.90;;
50853;SDS011;44154;45.506;-122.806;2023-03-21T00:57:58;9.00;;;1.00;;
50853;SDS011;44154;45.506;-122.806;2023-03-21T01:00:25;5.18;;;0.50;;
50853;SDS011;44154;45.506;-122.806;2023-03-21T01:02:51;4.10;;;0.55;;
50853;SDS011;44154;45.506;-122.806;2023-03-21T01:05:25;3.40;;;0.68;;
50853;SDS011;44154;45.506;-122.806;2023-03-21T01:08:11;9.85;;;0.73;;
50853;SDS011;44154;45.506;-122.806;2023-03-21T01:10:40;7.05;;;0.90;;
50853;SDS011;44154;45.506;-122.806;2023-03-21T01:13:08;2.88;;;0.50;;
50853;SDS011;44154;45.506;-122.806;2023-03-21T01:15:35;7.05;;;0.90;;
50853;SDS011;44154;45.506;-122.806;2023-03-21T01:18:07;3.35;;;0.50;;
50853;SDS011;44154;45.506;-122.806;2023-03-21T01:20:33;3.03;;;0.60;;
50853;SDS011;44154;45.506;-122.806;2023-03-21T01:22:59;3.95;;;0.68;;
50853;SDS011;44154;45.506;-122.806;2023-03-21T01:25:25;3.65;;;0.65;;
50853;SDS011;44154;45.506;-122.806;2023-03-21T01:27:51;1.65;;;0.40;;
50853;SDS011;44154;45.506;-122.806;2023-03-21T01:30:19;3.13;;;0.82;;
50853;SDS011;44154;45.506;-122.806;2023-03-21T01:32:45;6.72;;;0.60;;
50853;SDS011;44154;45.506;-122.806;2023-03-21T01:35:12;6.00;;;0.73;;
50853;SDS011;44154;45.506;-122.806;2023-03-21T01:37:38;5.25;;;0.77;;
50853;SDS011;44154;45.506;-122.806;2023-03-21T01:40:05;9.82;;;0.77;;
50853;SDS011;44154;45.506;-122.806;2023-03-21T01:42:37;3.90;;;1.10;;
50853;SDS011;44154;45.506;-122.806;2023-03-21T01:45:06;3.20;;;0.50;;
50853;SDS011;44154;45.506;-122.806;2023-03-21T01:47:52;2.28;;;0.50;;
50853;SDS011;44154;45.506;-122.806;2023-03-21T01:50:18;3.40;;;0.80;;
50853;SDS011;44154;45.506;-122.806;2023-03-21T01:52:46;3.25;;;0.50;;
50853;SDS011;44154;45.506;-122.806;2023-03-21T01:55:14;2.95;;;0.57;;
50853;SDS011;44154;45.506;-122.806;2023-03-21T01:57:45;2.33;;;0.40;;
50853;SDS011;44154;45.506;-122.806;2023-03-21T02:00:19;4.03;;;0.70;;
50853;SDS011;44154;45.506;-122.806;2023-03-21T02:02:49;4.15;;;0.57;;
50853;SDS011;44154;45.506;-122.806;2023-03-21T02:05:16;3.30;;;0.45;;
50853;SDS011;44154;45.506;-122.806;2023-03-21T02:07:47;4.85;;;0.77;;
50853;SDS011;44154;45.506;-122.806;2023-03-21T02:10:16;4.00;;;0.80;;
50853;SDS011;44154;45.506;-122.806;2023-03-21T02:12:43;4.55;;;0.50;;
50853;SDS011;44154;45.506;-122.806;2023-03-21T02:15:10;2.67;;;0.60;;
50853;SDS011;44154;45.506;-122.806;2023-03-21T02:17:42;2.20;;;0.60;;
50853;SDS011;44154;45.506;-122.806;2023-03-21T02:20:26;1.60;;;0.30;;
50853;SDS011;44154;45.506;-122.806;2023-03-21T02:28:46;3.25;;;0.50;;
50853;SDS011;44154;45.506;-122.806;2023-03-21T02:37:45;4.65;;;0.50;;
50853;SDS011;44154;45.506;-122.806;2023-03-21T02:45:18;2.17;;;0.50;;
50853;SDS011;44154;45.506;-122.806;2023-03-21T02:47:47;2.58;;;0.40;;
50853;SDS011;44154;45.506;-122.806;2023-03-21T02:52:56;4.93;;;0.45;;
50853;SDS011;44154;45.506;-122.806;2023-03-21T02:55:25;3.50;;;0.40;;
50853;SDS011;44154;45.506;-122.806;2023-03-21T02:57:55;3.47;;;0.60;;
50853;SDS011;44154;45.506;-122.806;2023-03-21T03:00:27;4.22;;;0.40;;
50853;SDS011;44154;45.506;-122.806;2023-03-21T03:05:24;6.28;;;0.93;;
50853;SDS011;44154;45.506;-122.806;2023-03-21T03:13:58;2.40;;;0.35;;
50853;SDS011;44154;45.506;-122.806;2023-03-21T03:19:33;2.08;;;0.30;;
50853;SDS011;44154;45.506;-122.806;2023-03-21T03:24:44;1.85;;;0.40;;
50853;SDS011;44154;45.506;-122.806;2023-03-21T03:27:23;3.25;;;0.60;;
50853;SDS011;44154;45.506;-122.806;2023-03-21T03:29:57;1.77;;;0.30;;
50853;SDS011;44154;45.506;-122.806;2023-03-21T03:32:30;4.03;;;0.57;;
50853;SDS011;44154;45.506;-122.806;2023-03-21T03:35:02;3.92;;;0.73;;
50853;SDS011;44154;45.506;-122.806;2023-03-21T03:37:32;2.30;;;0.40;;
50853;SDS011;44154;45.506;-122.806;2023-03-21T03:40:08;3.13;;;0.50;;
50853;SDS011;44154;45.506;-122.806;2023-03-21T03:42:47;8.07;;;0.65;;
50853;SDS011;44154;45.506;-122.806;2023-03-21T03:45:16;5.50;;;0.40;;
50853;SDS011;44154;45.506;-122.806;2023-03-21T03:48:06;1.70;;;0.50;;
50853;SDS011;44154;45.506;-122.806;2023-03-21T03:55:59;1.63;;;0.32;;
50853;SDS011;44154;45.506;-122.806;2023-03-21T03:58:26;3.55;;;0.40;;
50853;SDS011;44154;45.506;-122.806;2023-03-21T04:00:55;2.45;;;0.40;;
50853;SDS011;44154;45.506;-122.806;2023-03-21T04:03:22;2.40;;;0.30;;
50853;SDS011;44154;45.506;-122.806;2023-03-21T04:05:48;1.38;;;0.35;;
50853;SDS011;44154;45.506;-122.806;2023-03-21T04:08:14;1.15;;;0.30;;
50853;SDS011;44154;45.506;-122.806;2023-03-21T04:10:42;2.25;;;0.40;;
50853;SDS011;44154;45.506;-122.806;2023-03-21T04:13:08;1.33;;;0.40;;
50853;SDS011;44154;45.506;-122.806;2023-03-21T04:15:35;1.67;;;0.30;;
50853;SDS011;44154;45.506;-122.806;2023-03-21T04:18:02;2.67;;;0.60;;
50853;SDS011;44154;45.506;-122.806;2023-03-21T04:20:28;2.85;;;0.32;;
50853;SDS011;44154;45.506;-122.806;2023-03-21T04:22:54;2.03;;;0.30;;
50853;SDS011;44154;45.506;-122.806;2023-03-21T04:25:21;3.20;;;0.43;;
50853;SDS011;44154;45.506;-122.806;2023-03-21T04:27:47;0.75;;;0.20;;
50853;SDS011;44154;45.506;-122.806;2023-03-21T04:30:14;2.85;;;0.50;;
50853;SDS011;44154;45.506;-122.806;2023-03-21T04:32:40;1.42;;;0.22;;
50853;SDS011;44154;45.506;-122.806;2023-03-21T04:35:07;1.52;;;0.35;;
50853;SDS011;44154;45.506;-122.806;2023-03-21T04:37:35;1.70;;;0.50;;
50853;SDS011;44154;45.506;-122.806;2023-03-21T04:40:03;2.45;;;0.45;;
50853;SDS011;44154;45.506;-122.806;2023-03-21T04:42:32;2.97;;;0.60;;
50853;SDS011;44154;45.506;-122.806;2023-03-21T04:44:59;4.05;;;0.63;;
50853;SDS011;44154;45.506;-122.806;2023-03-21T04:47:26;1.55;;;0.40;;
50853;SDS011;44154;45.506;-122.806;2023-03-21T04:49:52;2.15;;;0.30;;
50853;SDS011;44154;45.506;-122.806;2023-03-21T04:52:19;2.28;;;0.50;;
50853;SDS011;44154;45.506;-122.806;2023-03-21T04:54:45;2.45;;;0.40;;
50853;SDS011;44154;45.506;-122.806;2023-03-21T04:57:11;2.80;;;0.70;;
50853;SDS011;44154;45.506;-122.806;2023-03-21T04:59:37;4.97;;;0.60;;
50853;SDS011;44154;45.506;-122.806;2023-03-21T05:02:03;2.20;;;0.50;;
50853;SDS011;44154;45.506;-122.806;2023-03-21T05:04:30;0.65;;;0.22;;
50853;SDS011;44154;45.506;-122.806;2023-03-21T05:06:56;1.27;;;0.40;;
50853;SDS011;44154;45.506;-122.806;2023-03-21T05:09:23;1.50;;;0.38;;
50853;SDS011;44154;45.506;-122.806;2023-03-21T05:11:49;1.35;;;0.43;;
50853;SDS011;44154;45.506;-122.806;2023-03-21T05:14:17;1.83;;;0.40;;
50853;SDS011;44154;45.506;-122.806;2023-03-21T05:16:45;1.40;;;0.43;;
50853;SDS011;44154;45.506;-122.806;2023-03-21T05:19:18;2.28;;;0.60;;
50853;SDS011;44154;45.506;-122.806;2023-03-21T05:21:47;2.30;;;0.50;;
50853;SDS011;44154;45.506;-122.806;2023-03-21T05:24:14;2.28;;;0.60;;
50853;SDS011;44154;45.506;-122.806;2023-03-21T05:26:42;2.15;;;0.60;;
50853;SDS011;44154;45.506;-122.806;2023-03-21T05:29:14;1.70;;;0.60;;
50853;SDS011;44154;45.506;-122.806;2023-03-21T05:31:42;3.72;;;0.77;;
50853;SDS011;44154;45.506;-122.806;2023-03-21T05:34:09;2.10;;;0.40;;
50853;SDS011;44154;45.506;-122.806;2023-03-21T05:36:36;2.10;;;0.50;;
50853;SDS011;44154;45.506;-122.806;2023-03-21T05:39:03;2.38;;;0.60;;
50853;SDS011;44154;45.506;-122.806;2023-03-21T05:41:29;3.47;;;0.60;;
50853;SDS011;44154;45.506;-122.806;2023-03-21T05:43:56;1.95;;;0.50;;
50853;SDS011;44154;45.506;-122.806;2023-03-21T05:46:22;2.38;;;0.50;;
50853;SDS011;44154;45.506;-122.806;2023-03-21T05:48:48;2.15;;;0.57;;
50853;SDS011;44154;45.506;-122.806;2023-03-21T05:51:14;3.78;;;1.17;;
50853;SDS011;44154;45.506;-122.806;2023-03-21T05:53:40;2.42;;;0.70;;
50853;SDS011;44154;45.506;-122.806;2023-03-21T05:56:07;2.05;;;0.65;;
50853;SDS011;44154;45.506;-122.806;2023-03-21T05:58:33;5.68;;;0.75;;
50853;SDS011;44154;45.506;-122.806;2023-03-21T06:00:59;3.25;;;0.77;;
50853;SDS011;44154;45.506;-122.806;2023-03-21T06:03:25;3.13;;;0.73;;
50853;SDS011;44154;45.506;-122.806;2023-03-21T06:05:52;4.35;;;0.82;;
50853;SDS011;44154;45.506;-122.806;2023-03-21T06:08:18;3.60;;;0.90;;
50853;SDS011;44154;45.506;-122.806;2023-03-21T06:10:44;3.70;;;0.98;;
50853;SDS011;44154;45.506;-122.806;2023-03-21T06:13:10;5.35;;;0.60;;
50853;SDS011;44154;45.506;-122.806;2023-03-21T06:15:36;2.50;;;0.80;;
50853;SDS011;44154;45.506;-122.806;2023-03-21T06:18:03;1.83;;;0.50;;
50853;SDS011;44154;45.506;-122.806;2023-03-21T06:20:29;1.83;;;0.70;;
50853;SDS011;44154;45.506;-122.806;2023-03-21T06:22:55;3.35;;;0.63;;
50853;SDS011;44154;45.506;-122.806;2023-03-21T06:25:21;2.20;;;0.63;;
50853;SDS011;44154;45.506;-122.806;2023-03-21T06:27:48;2.67;;;0.68;;
50853;SDS011;44154;45.506;-122.806;2023-03-21T06:30:14;2.08;;;0.63;;
50853;SDS011;44154;45.506;-122.806;2023-03-21T06:32:42;2.08;;;0.60;;
50853;SDS011;44154;45.506;-122.806;2023-03-21T06:35:09;1.13;;;0.50;;
50853;SDS011;44154;45.506;-122.806;2023-03-21T06:37:35;1.98;;;0.40;;
50853;SDS011;44154;45.506;-122.806;2023-03-21T06:40:02;1.95;;;0.50;;
50853;SDS011;44154;45.506;-122.806;2023-03-21T06:42:30;1.45;;;0.45;;
50853;SDS011;44154;45.506;-122.806;2023-03-21T06:44:56;2.20;;;0.50;;
50853;SDS011;44154;45.506;-122.806;2023-03-21T06:47:22;2.72;;;0.63;;
50853;SDS011;44154;45.506;-122.806;2023-03-21T06:49:49;1.95;;;0.50;;
50853;SDS011;44154;45.506;-122.806;2023-03-21T06:52:15;0.60;;;0.30;;
50853;SDS011;44154;45.506;-122.806;2023-03-21T06:54:41;1.77;;;0.30;;
50853;SDS011;44154;45.506;-122.806;2023-03-21T06:57:08;2.33;;;0.38;;
50853;SDS011;44154;45.506;-122.806;2023-03-21T06:59:34;0.80;;;0.30;;
50853;SDS011;44154;45.506;-122.806;2023-03-21T07:02:00;1.73;;;0.50;;
50853;SDS011;44154;45.506;-122.806;2023-03-21T07:04:26;2.65;;;0.45;;
50853;SDS011;44154;45.506;-122.806;2023-03-21T07:06:53;1.45;;;0.35;;
50853;SDS011;44154;45.506;-122.806;2023-03-21T07:09:19;1.17;;;0.40;;
50853;SDS011;44154;45.506;-122.806;2023-03-21T07:11:48;1.20;;;0.35;;
50853;SDS011;44154;45.506;-122.806;2023-03-21T07:14:17;1.02;;;0.40;;
50853;SDS011;44154;45.506;-122.806;2023-03-21T07:16:44;1.92;;;0.35;;
50853;SDS011;44154;45.506;-122.806;2023-03-21T07:19:10;1.17;;;0.32;;
50853;SDS011;44154;45.506;-122.806;2023-03-21T07:21:36;1.70;;;0.60;;
50853;SDS011;44154;45.506;-122.806;2023-03-21T07:24:02;0.80;;;0.35;;
50853;SDS011;44154;45.506;-122.806;2023-03-21T07:26:28;1.85;;;0.60;;
50853;SDS011;44154;45.506;-122.806;2023-03-21T07:28:54;3.22;;;0.65;;
50853;SDS011;44154;45.506;-122.806;2023-03-21T07:31:20;3.38;;;0.70;;
50853;SDS011;44154;45.506;-122.806;2023-03-21T07:33:50;2.45;;;0.70;;
50853;SDS011;44154;45.506;-122.806;2023-03-21T07:36:16;2.65;;;0.60;;
50853;SDS011;44154;45.506;-122.806;2023-03-21T07:38:42;1.90;;;0.80;;
50853;SDS011;44154;45.506;-122.806;2023-03-21T07:41:10;5.18;;;0.90;;
50853;SDS011;44154;45.506;-122.806;2023-03-21T07:43:36;2.38;;;0.70;;
50853;SDS011;44154;45.506;-122.806;2023-03-21T07:46:03;2.60;;;0.65;;
50853;SDS011;44154;45.506;-122.806;2023-03-21T07:48:29;1.48;;;0.50;;
50853;SDS011;44154;45.506;-122.806;2023-03-21T07:50:56;2.60;;;0.82;;
50853;SDS011;44154;45.506;-122.806;2023-03-21T07:53:22;4.82;;;1.02;;
50853;SDS011;44154;45.506;-122.806;2023-03-21T07:55:49;2.78;;;0.75;;
50853;SDS011;44154;45.506;-122.806;2023-03-21T07:58:17;3.58;;;0.60;;
50853;SDS011;44154;45.506;-122.806;2023-03-21T08:00:43;3.83;;;0.98;;
50853;SDS011;44154;45.506;-122.806;2023-03-21T08:03:09;2.65;;;0.60;;
50853;SDS011;44154;45.506;-122.806;2023-03-21T08:05:36;2.33;;;0.60;;
50853;SDS011;44154;45.506;-122.806;2023-03-21T08:08:03;2.08;;;0.70;;
50853;SDS011;44154;45.506;-122.806;2023-03-21T08:10:30;2.35;;;0.70;;
50853;SDS011;44154;45.506;-122.806;2023-03-21T08:12:56;2.75;;;0.70;;
50853;SDS011;44154;45.506;-122.806;2023-03-21T08:15:23;2.22;;;0.70;;
50853;SDS011;44154;45.506;-122.806;2023-03-21T08:17:49;1.35;;;0.50;;
50853;SDS011;44154;45.506;-122.806;2023-03-21T08:20:17;1.70;;;0.40;;
50853;SDS011;44154;45.506;-122.806;2023-03-21T08:22:46;1.52;;;0.30;;
50853;SDS011;44154;45.506;-122.806;2023-03-21T08:25:13;1.63;;;0.63;;
50853;SDS011;44154;45.506;-122.806;2023-03-21T08:27:42;2.20;;;0.60;;
50853;SDS011;44154;45.506;-122.806;2023-03-21T08:30:10;2.45;;;0.60;;
50853;SDS011;44154;45.506;-122.806;2023-03-21T08:32:39;2.10;;;0.40;;
50853;SDS011;44154;45.506;-122.806;2023-03-21T08:35:07;2.00;;;0.50;;
50853;SDS011;44154;45.506;-122.806;2023-03-21T08:37:38;1.70;;;0.40;;
50853;SDS011;44154;45.506;-122.806;2023-03-21T08:40:07;1.10;;;0.30;;
50853;SDS011;44154;45.506;-122.806;2023-03-21T08:42:40;1.23;;;0.40;;
50853;SDS011;44154;45.506;-122.806;2023-03-21T08:45:07;1.98;;;0.30;;
50853;SDS011;44154;45.506;-122.806;2023-03-21T08:47:34;1.10;;;0.40;;
50853;SDS011;44154;45.506;-122.806;2023-03-21T08:50:00;1.65;;;0.50;;
50853;SDS011;44154;45.506;-122.806;2023-03-21T08:52:28;1.20;;;0.50;;
50853;SDS011;44154;45.506;-122.806;2023-03-21T08:54:54;2.00;;;0.40;;
50853;SDS011;44154;45.506;-122.806;2023-03-21T08:57:20;0.90;;;0.50;;
50853;SDS011;44154;45.506;-122.806;2023-03-21T08:59:46;0.60;;;0.30;;
50853;SDS011;44154;45.506;-122.806;2023-03-21T09:02:13;1.13;;;0.30;;
50853;SDS011;44154;45.506;-122.806;2023-03-21T09:04:41;0.82;;;0.30;;
50853;SDS011;44154;45.506;-122.806;2023-03-21T09:07:08;0.60;;;0.30;;
50853;SDS011;44154;45.506;-122.806;2023-03-21T09:09:37;1.25;;;0.30;;
50853;SDS011;44154;45.506;-122.806;2023-03-21T09:12:03;1.40;;;0.40;;
50853;SDS011;44154;45.506;-122.806;2023-03-21T09:14:30;1.90;;;0.60;;
50853;SDS011;44154;45.506;-122.806;2023-03-21T09:16:57;1.10;;;0.40;;
50853;SDS011;44154;45.506;-122.806;2023-03-21T09:19:23;1.10;;;0.30;;
50853;SDS011;44154;45.506;-122.806;2023-03-21T09:21:50;1.27;;;0.40;;
50853;SDS011;44154;45.506;-122.806;2023-03-21T09:24:18;1.40;;;0.40;;
50853;SDS011;44154;45.506;-122.806;2023-03-21T09:26:44;1.88;;;0.40;;
50853;SDS011;44154;45.506;-122.806;2023-03-21T09:29:14;0.70;;;0.30;;
50853;SDS011;44154;45.506;-122.806;2023-03-21T09:31:40;0.93;;;0.35;;
50853;SDS011;44154;45.506;-122.806;2023-03-21T09:34:07;1.42;;;0.40;;
50853;SDS011;44154;45.506;-122.806;2023-03-21T09:36:34;1.45;;;0.43;;
50853;SDS011;44154;45.506;-122.806;2023-03-21T09:39:02;0.98;;;0.40;;
50853;SDS011;44154;45.506;-122.806;2023-03-21T09:41:31;2.28;;;0.43;;
50853;SDS011;44154;45.506;-122.806;2023-03-21T09:46:58;0.30;;;0.20;;
50853;SDS011;44154;45.506;-122.806;2023-03-21T09:52:23;0.82;;;0.20;;
50853;SDS011;44154;45.506;-122.806;2023-03-21T09:54:57;0.80;;;0.30;;
50853;SDS011;44154;45.506;-122.806;2023-03-21T10:00:05;0.82;;;0.20;;
50853;SDS011;44154;45.506;-122.806;2023-03-21T10:02:43;0.50;;;0.20;;
50853;SDS011;44154;45.506;-122.806;2023-03-21T10:05:20;0.60;;;0.30;;
50853;SDS011;44154;45.506;-122.806;2023-03-21T10:10:23;0.70;;;0.22;;
50853;SDS011;44154;45.506;-122.806;2023-03-21T10:12:53;0.80;;;0.32;;
50853;SDS011;44154;45.506;-122.806;2023-03-21T10:15:22;1.42;;;0.40;;
50853;SDS011;44154;45.506;-122.806;2023-03-21T10:20:33;0.60;;;0.20;;
50853;SDS011;44154;45.506;-122.806;2023-03-21T10:23:06;0.52;;;0.25;;
50853;SDS011;44154;45.506;-122.806;2023-03-21T10:28:31;0.30;;;0.20;;
50853;SDS011;44154;45.506;-122.806;2023-03-21T10:31:02;0.80;;;0.30;;
50853;SDS011;44154;45.506;-122.806;2023-03-21T10:33:38;0.50;;;0.20;;
50853;SDS011;44154;45.506;-122.806;2023-03-21T10:38:43;0.43;;;0.30;;
50853;SDS011;44154;45.506;-122.806;2023-03-21T10:41:14;0.73;;;0.30;;
50853;SDS011;44154;45.506;-122.806;2023-03-21T10:43:40;1.35;;;0.40;;
50853;SDS011;44154;45.506;-122.806;2023-03-21T10:46:15;0.75;;;0.28;;
50853;SDS011;44154;45.506;-122.806;2023-03-21T10:48:49;1.13;;;0.20;;
50853;SDS011;44154;45.506;-122.806;2023-03-21T10:51:18;0.82;;;0.40;;
50853;SDS011;44154;45.506;-122.806;2023-03-21T10:53:57;1.10;;;0.20;;
50853;SDS011;44154;45.506;-122.806;2023-03-21T10:56:26;0.50;;;0.20;;
50853;SDS011;44154;45.506;-122.806;2023-03-21T10:58:58;0.75;;;0.20;;
50853;SDS011;44154;45.506;-122.806;2023-03-21T11:01:38;0.47;;;0.20;;
50853;SDS011;44154;45.506;-122.806;2023-03-21T11:04:20;0.20;;;0.20;;
50853;SDS011;44154;45.506;-122.806;2023-03-21T11:06:57;0.50;;;0.20;;
50853;SDS011;44154;45.506;-122.806;2023-03-21T11:09:46;0.47;;;0.20;;
50853;SDS011;44154;45.506;-122.806;2023-03-21T11:12:16;0.80;;;0.30;;
50853;SDS011;44154;45.506;-122.806;2023-03-21T11:14:47;0.45;;;0.20;;
50853;SDS011;44154;45.506;-122.806;2023-03-21T11:19:46;0.47;;;0.20;;
50853;SDS011;44154;45.506;-122.806;2023-03-21T11:22:17;1.13;;;0.50;;
50853;SDS011;44154;45.506;-122.806;2023-03-21T11:24:56;1.50;;;0.50;;
50853;SDS011;44154;45.506;-122.806;2023-03-21T11:27:27;0.55;;;0.20;;
50853;SDS011;44154;45.506;-122.806;2023-03-21T11:29:54;0.73;;;0.20;;
50853;SDS011;44154;45.506;-122.806;2023-03-21T11:32:33;0.80;;;0.35;;
50853;SDS011;44154;45.506;-122.806;2023-03-21T11:37:42;1.27;;;0.20;;
50853;SDS011;44154;45.506;-122.806;2023-03-21T11:40:27;0.80;;;0.22;;
50853;SDS011;44154;45.506;-122.806;2023-03-21T11:42:58;0.45;;;0.20;;
50853;SDS011;44154;45.506;-122.806;2023-03-21T11:45:30;0.80;;;0.20;;
50853;SDS011;44154;45.506;-122.806;2023-03-21T11:47:58;0.28;;;0.17;;
50853;SDS011;44154;45.506;-122.806;2023-03-21T11:59:06;0.45;;;0.20;;
50853;SDS011;44154;45.506;-122.806;2023-03-21T12:01:52;0.38;;;0.17;;
50853;SDS011;44154;45.506;-122.806;2023-03-21T12:10:10;1.35;;;0.30;;
50853;SDS011;44154;45.506;-122.806;2023-03-21T12:15:23;0.60;;;0.20;;
50853;SDS011;44154;45.506;-122.806;2023-03-21T12:18:24;0.75;;;0.30;;
50853;SDS011;44154;45.506;-122.806;2023-03-21T12:26:55;0.47;;;0.20;;
50853;SDS011;44154;45.506;-122.806;2023-03-21T12:32:37;0.40;;;0.20;;
50853;SDS011;44154;45.506;-122.806;2023-03-21T12:41:02;0.32;;;0.20;;
50853;SDS011;44154;45.506;-122.806;2023-03-21T12:49:37;1.85;;;0.28;;
50853;SDS011;44154;45.506;-122.806;2023-03-21T12:52:12;0.60;;;0.20;;
50853;SDS011;44154;45.506;-122.806;2023-03-21T12:54:46;0.70;;;0.20;;
50853;SDS011;44154;45.506;-122.806;2023-03-21T12:58:03;0.40;;;0.20;;
50853;SDS011;44154;45.506;-122.806;2023-03-21T13:00:17;0.60;;;0.20;;
50853;SDS011;44154;45.506;-122.806;2023-03-21T13:05:39;0.15;;;0.10;;
50853;SDS011;44154;45.506;-122.806;2023-03-21T13:10:46;0.25;;;0.15;;
50853;SDS011;44154;45.506;-122.806;2023-03-21T13:21:50;0.47;;;0.13;;
50853;SDS011;44154;45.506;-122.806;2023-03-21T13:25:17;0.30;;;0.10;;
50853;SDS011;44154;45.506;-122.806;2023-03-21T13:27:25;0.95;;;0.55;;
50853;SDS011;44154;45.506;-122.806;2023-03-21T13:30:05;0.60;;;0.15;;
50853;SDS011;44154;45.506;-122.806;2023-03-21T13:32:43;0.40;;;0.20;;
50853;SDS011;44154;45.506;-122.806;2023-03-21T13:37:42;1.10;;;0.40;;
50853;SDS011;44154;45.506;-122.806;2023-03-21T13:40:20;0.50;;;0.20;;
50853;SDS011;44154;45.506;-122.806;2023-03-21T13:42:50;0.77;;;0.20;;
50853;SDS011;44154;45.506;-122.806;2023-03-21T13:45:25;0.57;;;0.22;;
50853;SDS011;44154;45.506;-122.806;2023-03-21T13:47:56;0.70;;;0.20;;
50853;SDS011;44154;45.506;-122.806;2023-03-21T13:50:28;0.70;;;0.30;;
50853;SDS011;44154;45.506;-122.806;2023-03-21T13:55:38;0.47;;;0.20;;
50853;SDS011;44154;45.506;-122.806;2023-03-21T13:58:22;0.85;;;0.30;;
50853;SDS011;44154;45.506;-122.806;2023-03-21T14:11:57;6.47;;;0.40;;
50853;SDS011;44154;45.506;-122.806;2023-03-21T14:14:29;0.60;;;0.20;;
50853;SDS011;44154;45.506;-122.806;2023-03-21T14:17:12;0.32;;;0.20;;
50853;SDS011;44154;45.506;-122.806;2023-03-21T14:19:59;1.88;;;0.22;;
50853;SDS011;44154;45.506;-122.806;2023-03-21T14:22:25;1.45;;;0.30;;
50853;SDS011;44154;45.506;-122.806;2023-03-21T14:24:54;1.20;;;0.30;;
50853;SDS011;44154;45.506;-122.806;2023-03-21T14:27:21;0.70;;;0.32;;
50853;SDS011;44154;45.506;-122.806;2023-03-21T14:29:52;1.05;;;0.30;;
50853;SDS011;44154;45.506;-122.806;2023-03-21T14:32:20;0.40;;;0.20;;
50853;SDS011;44154;45.506;-122.806;2023-03-21T14:34:48;0.75;;;0.30;;
50853;SDS011;44154;45.506;-122.806;2023-03-21T14:37:32;0.82;;;0.30;;
50853;SDS011;44154;45.506;-122.806;2023-03-21T14:40:04;1.13;;;0.20;;
50853;SDS011;44154;45.506;-122.806;2023-03-21T14:42:36;2.15;;;0.40;;
50853;SDS011;44154;45.506;-122.806;2023-03-21T14:45:20;1.13;;;0.30;;
50853;SDS011;44154;45.506;-122.806;2023-03-21T14:53:15;13.32;;;1.13;;
50853;SDS011;44154;45.506;-122.806;2023-03-21T14:55:46;5.88;;;0.80;;
50853;SDS011;44154;45.506;-122.806;2023-03-21T14:58:17;4.65;;;0.45;;
50853;SDS011;44154;45.506;-122.806;2023-03-21T15:00:46;1.52;;;0.20;;
50853;SDS011;44154;45.506;-122.806;2023-03-21T15:03:17;3.78;;;0.40;;
50853;SDS011;44154;45.506;-122.806;2023-03-21T15:05:46;1.45;;;0.45;;
50853;SDS011;44154;45.506;-122.806;2023-03-21T15:08:14;1.88;;;0.30;;
50853;SDS011;44154;45.506;-122.806;2023-03-21T15:13:44;2.90;;;0.30;;
50853;SDS011;44154;45.506;-122.806;2023-03-21T15:16:16;5.40;;;0.68;;
50853;SDS011;44154;45.506;-122.806;2023-03-21T15:18:43;1.92;;;0.30;;
50853;SDS011;44154;45.506;-122.806;2023-03-21T15:21:16;1.52;;;0.30;;
50853;SDS011;44154;45.506;-122.806;2023-03-21T15:23:56;0.70;;;0.30;;
50853;SDS011;44154;45.506;-122.806;2023-03-21T15:26:26;1.00;;;0.43;;
50853;SDS011;44154;45.506;-122.806;2023-03-21T15:28:57;1.38;;;0.30;;
50853;SDS011;44154;45.506;-122.806;2023-03-21T15:31:27;1.88;;;0.40;;
50853;SDS011;44154;45.506;-122.806;2023-03-21T15:33:55;1.88;;;0.30;;
50853;SDS011;44154;45.506;-122.806;2023-03-21T15:36:26;1.10;;;0.22;;
50853;SDS011;44154;45.506;-122.806;2023-03-21T15:38:56;0.82;;;0.30;;
50853;SDS011;44154;45.506;-122.806;2023-03-21T15:41:28;1.35;;;0.30;;
50853;SDS011;44154;45.506;-122.806;2023-03-21T15:51:43;1.23;;;0.35;;
50853;SDS011;44154;45.506;-122.806;2023-03-21T15:54:23;2.63;;;0.50;;
50853;SDS011;44154;45.506;-122.806;2023-03-21T15:56:55;1.23;;;0.40;;
50853;SDS011;44154;45.506;-122.806;2023-03-21T15:59:26;4.60;;;1.05;;
50853;SDS011;44154;45.506;-122.806;2023-03-21T16:01:57;3.00;;;0.55;;
50853;SDS011;44154;45.506;-122.806;2023-03-21T16:04:23;0.75;;;0.45;;
50853;SDS011;44154;45.506;-122.806;2023-03-21T16:06:52;2.33;;;0.40;;
50853;SDS011;44154;45.506;-122.806;2023-03-21T16:09:40;1.58;;;0.40;;
50853;SDS011;44154;45.506;-122.806;2023-03-21T16:12:12;1.60;;;0.50;;
50853;SDS011;44154;45.506;-122.806;2023-03-21T16:14:40;0.60;;;0.30;;
50853;SDS011;44154;45.506;-122.806;2023-03-21T16:19:57;0.93;;;0.32;;
50853;SDS011;44154;45.506;-122.806;2023-03-21T16:22:24;1.05;;;0.30;;
50853;SDS011;44154;45.506;-122.806;2023-03-21T16:24:52;1.17;;;0.40;;
50853;SDS011;44154;45.506;-122.806;2023-03-21T16:27:18;0.80;;;0.30;;
50853;SDS011;44154;45.506;-122.806;2023-03-21T16:29:45;1.13;;;0.40;;
50853;SDS011;44154;45.506;-122.806;2023-03-21T16:32:13;1.30;;;0.40;;
50853;SDS011;44154;45.506;-122.806;2023-03-21T16:34:41;2.28;;;0.70;;
50853;SDS011;44154;45.506;-122.806;2023-03-21T16:37:09;1.58;;;0.43;;
50853;SDS011;44154;45.506;-122.806;2023-03-21T16:39:36;0.75;;;0.30;;
50853;SDS011;44154;45.506;-122.806;2023-03-21T16:42:02;1.58;;;0.45;;
50853;SDS011;44154;45.506;-122.806;2023-03-21T16:44:28;1.10;;;0.70;;
50853;SDS011;44154;45.506;-122.806;2023-03-21T16:46:54;3.05;;;0.40;;
50853;SDS011;44154;45.506;-122.806;2023-03-21T16:49:25;0.70;;;0.35;;
50853;SDS011;44154;45.506;-122.806;2023-03-21T16:51:53;2.25;;;0.30;;
50853;SDS011;44154;45.506;-122.806;2023-03-21T16:54:20;1.63;;;0.35;;